sensor_id;sensor_type;location;lat;lon;timestamp;P1;durP1;ratioP1;P2;durP2;ratioP2
13421;SDS011;6782;55.904;13.396;2023-06-05T00:02:27;6.30;;;4.43;;
13421;SDS011;6782;55.904;13.396;2023-06-05T00:05:14;3.95;;;3.55;;
13421;SDS011;6782;55.904;13.396;2023-06-05T00:08:03;4.60;;;4.10;;
13421;SDS011;6782;55.904;13.396;2023-06-05T00:10:50;8.07;;;4.70;;
13421;SDS011;6782;55.904;13.396;2023-06-05T00:13:39;5.57;;;4.60;;
13421;SDS011;6782;55.904;13.396;2023-06-05T00:16:26;6.88;;;4.68;;
13421;SDS011;6782;55.904;13.396;2023-06-05T00:19:13;5.75;;;4.85;;
13421;SDS011;6782;55.904;13.396;2023-06-05T00:22:01;5.83;;;4.80;;
13421;SDS011;6782;55.904;13.396;2023-06-05T00:24:48;5.57;;;4.90;;
13421;SDS011;6782;55.904;13.396;2023-06-05T00:27:35;5.72;;;4.75;;
13421;SDS011;6782;55.904;13.396;2023-06-05T00:30:24;6.45;;;4.88;;
13421;SDS011;6782;55.904;13.396;2023-06-05T00:33:12;7.65;;;5.10;;
13421;SDS011;6782;55.904;13.396;2023-06-05T00:35:59;6.00;;;4.97;;
13421;SDS011;6782;55.904;13.396;2023-06-05T00:38:46;5.45;;;4.63;;
13421;SDS011;6782;55.904;13.396;2023-06-05T00:41:33;5.63;;;4.22;;
13421;SDS011;6782;55.904;13.396;2023-06-05T00:44:20;5.72;;;4.10;;
13421;SDS011;6782;55.904;13.396;2023-06-05T00:47:09;5.37;;;4.80;;
13421;SDS011;6782;55.904;13.396;2023-06-05T00:49:57;5.20;;;4.03;;
13421;SDS011;6782;55.904;13.396;2023-06-05T00:52:45;5.43;;;4.45;;
13421;SDS011;6782;55.904;13.396;2023-06-05T00:55:33;6.15;;;4.32;;
13421;SDS011;6782;55.904;13.396;2023-06-05T00:58:21;5.38;;;4.35;;
13421;SDS011;6782;55.904;13.396;2023-06-05T01:01:09;5.05;;;4.53;;
13421;SDS011;6782;55.904;13.396;2023-06-05T01:03:59;5.20;;;4.18;;
13421;SDS011;6782;55.904;13.396;2023-06-05T01:06:47;6.10;;;4.47;;
13421;SDS011;6782;55.904;13.396;2023-06-05T01:09:36;5.43;;;4.25;;
13421;SDS011;6782;55.904;13.396;2023-06-05T01:12:24;5.18;;;3.85;;
13421;SDS011;6782;55.904;13.396;2023-06-05T01:15:17;6.78;;;4.63;;
13421;SDS011;6782;55.904;13.396;2023-06-05T01:18:14;5.32;;;4.18;;
13421;SDS011;6782;55.904;13.396;2023-06-05T01:21:09;5.45;;;4.30;;
13421;SDS011;6782;55.904;13.396;2023-06-05T01:24:00;5.28;;;4.70;;
13421;SDS011;6782;55.904;13.396;2023-06-05T01:26:50;4.95;;;4.45;;
13421;SDS011;6782;55.904;13.396;2023-06-05T01:29:54;5.30;;;4.43;;
13421;SDS011;6782;55.904;13.396;2023-06-05T01:32:49;4.90;;;4.40;;
13421;SDS011;6782;55.904;13.396;2023-06-05T01:35:39;4.25;;;3.85;;
13421;SDS011;6782;55.904;13.396;2023-06-05T01:38:29;4.60;;;4.10;;
13421;SDS011;6782;55.904;13.396;2023-06-05T01:41:21;4.57;;;4.18;;
13421;SDS011;6782;55.904;13.396;2023-06-05T01:44:09;5.05;;;4.60;;
13421;SDS011;6782;55.904;13.396;2023-06-05T01:46:59;5.72;;;4.40;;
13421;SDS011;6782;55.904;13.396;2023-06-05T01:49:47;5.25;;;4.70;;
13421;SDS011;6782;55.904;13.396;2023-06-05T01:52:35;5.05;;;4.60;;
13421;SDS011;6782;55.904;13.396;2023-06-05T01:55:25;4.78;;;4.38;;
13421;SDS011;6782;55.904;13.396;2023-06-05T01:58:14;4.70;;;3.90;;
13421;SDS011;6782;55.904;13.396;2023-06-05T02:01:01;6.22;;;5.07;;
13421;SDS011;6782;55.904;13.396;2023-06-05T02:03:50;4.65;;;4.25;;
13421;SDS011;6782;55.904;13.396;2023-06-05T02:06:38;5.35;;;4.75;;
13421;SDS011;6782;55.904;13.396;2023-06-05T02:09:28;5.90;;;5.15;;
13421;SDS011;6782;55.904;13.396;2023-06-05T02:12:17;4.72;;;4.32;;
13421;SDS011;6782;55.904;13.396;2023-06-05T02:15:07;5.43;;;4.93;;
13421;SDS011;6782;55.904;13.396;2023-06-05T02:17:58;6.18;;;4.63;;
13421;SDS011;6782;55.904;13.396;2023-06-05T02:20:45;4.90;;;4.28;;
13421;SDS011;6782;55.904;13.396;2023-06-05T02:23:40;6.63;;;5.05;;
13421;SDS011;6782;55.904;13.396;2023-06-05T02:26:29;5.80;;;4.55;;
13421;SDS011;6782;55.904;13.396;2023-06-05T02:29:16;5.32;;;4.82;;
13421;SDS011;6782;55.904;13.396;2023-06-05T02:32:05;5.13;;;4.63;;
13421;SDS011;6782;55.904;13.396;2023-06-05T02:34:52;5.47;;;4.82;;
13421;SDS011;6782;55.904;13.396;2023-06-05T02:37:42;5.70;;;5.10;;
13421;SDS011;6782;55.904;13.396;2023-06-05T02:40:30;5.27;;;4.70;;
13421;SDS011;6782;55.904;13.396;2023-06-05T02:43:17;5.70;;;5.07;;
13421;SDS011;6782;55.904;13.396;2023-06-05T02:46:05;5.97;;;4.90;;
13421;SDS011;6782;55.904;13.396;2023-06-05T02:48:54;5.90;;;4.77;;
13421;SDS011;6782;55.904;13.396;2023-06-05T02:51:41;7.13;;;4.90;;
13421;SDS011;6782;55.904;13.396;2023-06-05T02:54:28;5.90;;;4.70;;
13421;SDS011;6782;55.904;13.396;2023-06-05T02:57:16;6.43;;;4.90;;
13421;SDS011;6782;55.904;13.396;2023-06-05T03:00:03;5.57;;;5.07;;
13421;SDS011;6782;55.904;13.396;2023-06-05T03:02:53;6.67;;;4.77;;
13421;SDS011;6782;55.904;13.396;2023-06-05T03:05:42;7.63;;;5.40;;
13421;SDS011;6782;55.904;13.396;2023-06-05T03:08:31;5.40;;;4.90;;
13421;SDS011;6782;55.904;13.396;2023-06-05T03:11:19;6.05;;;4.95;;
13421;SDS011;6782;55.904;13.396;2023-06-05T03:14:06;6.10;;;5.30;;
13421;SDS011;6782;55.904;13.396;2023-06-05T03:16:54;5.17;;;4.77;;
13421;SDS011;6782;55.904;13.396;2023-06-05T03:19:43;4.93;;;4.47;;
13421;SDS011;6782;55.904;13.396;2023-06-05T03:22:32;5.25;;;4.75;;
13421;SDS011;6782;55.904;13.396;2023-06-05T03:25:19;5.93;;;4.88;;
13421;SDS011;6782;55.904;13.396;2023-06-05T03:28:06;4.72;;;4.20;;
13421;SDS011;6782;55.904;13.396;2023-06-05T03:30:54;4.57;;;4.00;;
13421;SDS011;6782;55.904;13.396;2023-06-05T03:33:41;5.47;;;3.85;;
13421;SDS011;6782;55.904;13.396;2023-06-05T03:36:28;4.18;;;3.72;;
13421;SDS011;6782;55.904;13.396;2023-06-05T03:39:19;5.57;;;4.22;;
13421;SDS011;6782;55.904;13.396;2023-06-05T03:42:06;5.68;;;3.65;;
13421;SDS011;6782;55.904;13.396;2023-06-05T03:44:54;3.50;;;3.20;;
13421;SDS011;6782;55.904;13.396;2023-06-05T03:47:41;4.85;;;3.10;;
13421;SDS011;6782;55.904;13.396;2023-06-05T03:50:32;5.18;;;3.35;;
13421;SDS011;6782;55.904;13.396;2023-06-05T03:53:22;4.55;;;3.38;;
13421;SDS011;6782;55.904;13.396;2023-06-05T03:56:11;3.75;;;3.42;;
13421;SDS011;6782;55.904;13.396;2023-06-05T03:59:01;5.00;;;3.30;;
13421;SDS011;6782;55.904;13.396;2023-06-05T04:01:55;4.32;;;3.08;;
13421;SDS011;6782;55.904;13.396;2023-06-05T04:04:42;4.18;;;3.00;;
13421;SDS011;6782;55.904;13.396;2023-06-05T04:07:29;3.45;;;3.13;;
13421;SDS011;6782;55.904;13.396;2023-06-05T04:10:17;6.07;;;3.83;;
13421;SDS011;6782;55.904;13.396;2023-06-05T04:13:05;5.22;;;3.35;;
13421;SDS011;6782;55.904;13.396;2023-06-05T04:15:53;5.15;;;3.80;;
13421;SDS011;6782;55.904;13.396;2023-06-05T04:18:40;4.13;;;3.67;;
13421;SDS011;6782;55.904;13.396;2023-06-05T04:21:27;4.40;;;3.97;;
13421;SDS011;6782;55.904;13.396;2023-06-05T04:24:15;5.22;;;4.13;;
13421;SDS011;6782;55.904;13.396;2023-06-05T04:27:03;6.35;;;4.43;;
13421;SDS011;6782;55.904;13.396;2023-06-05T04:29:51;6.57;;;5.10;;
13421;SDS011;6782;55.904;13.396;2023-06-05T04:32:39;6.72;;;5.00;;
13421;SDS011;6782;55.904;13.396;2023-06-05T04:35:27;6.07;;;5.28;;
13421;SDS011;6782;55.904;13.396;2023-06-05T04:38:14;8.25;;;5.38;;
13421;SDS011;6782;55.904;13.396;2023-06-05T04:41:06;8.18;;;6.13;;
13421;SDS011;6782;55.904;13.396;2023-06-05T04:43:53;6.80;;;6.18;;
13421;SDS011;6782;55.904;13.396;2023-06-05T04:46:44;10.30;;;6.93;;
13421;SDS011;6782;55.904;13.396;2023-06-05T04:49:32;7.97;;;6.93;;
13421;SDS011;6782;55.904;13.396;2023-06-05T04:52:19;8.20;;;7.00;;
13421;SDS011;6782;55.904;13.396;2023-06-05T04:55:08;8.82;;;6.78;;
13421;SDS011;6782;55.904;13.396;2023-06-05T04:57:56;8.77;;;7.30;;
13421;SDS011;6782;55.904;13.396;2023-06-05T05:00:46;8.45;;;6.85;;
13421;SDS011;6782;55.904;13.396;2023-06-05T05:03:36;8.40;;;6.78;;
13421;SDS011;6782;55.904;13.396;2023-06-05T05:06:23;8.30;;;7.00;;
13421;SDS011;6782;55.904;13.396;2023-06-05T05:09:11;8.70;;;7.75;;
13421;SDS011;6782;55.904;13.396;2023-06-05T05:11:59;7.90;;;7.00;;
13421;SDS011;6782;55.904;13.396;2023-06-05T05:14:46;7.93;;;7.13;;
13421;SDS011;6782;55.904;13.396;2023-06-05T05:17:33;8.43;;;7.63;;
13421;SDS011;6782;55.904;13.396;2023-06-05T05:20:21;9.85;;;7.05;;
13421;SDS011;6782;55.904;13.396;2023-06-05T05:23:09;10.70;;;7.90;;
13421;SDS011;6782;55.904;13.396;2023-06-05T05:25:56;8.23;;;7.43;;
13421;SDS011;6782;55.904;13.396;2023-06-05T05:28:43;11.20;;;8.10;;
13421;SDS011;6782;55.904;13.396;2023-06-05T05:31:31;11.20;;;7.82;;
13421;SDS011;6782;55.904;13.396;2023-06-05T05:34:18;12.05;;;9.02;;
13421;SDS011;6782;55.904;13.396;2023-06-05T05:37:07;13.98;;;9.02;;
13421;SDS011;6782;55.904;13.396;2023-06-05T05:39:54;10.45;;;9.35;;
13421;SDS011;6782;55.904;13.396;2023-06-05T05:42:41;14.80;;;9.98;;
13421;SDS011;6782;55.904;13.396;2023-06-05T05:45:28;18.73;;;11.75;;
13421;SDS011;6782;55.904;13.396;2023-06-05T05:48:15;13.80;;;11.70;;
13421;SDS011;6782;55.904;13.396;2023-06-05T05:51:02;19.08;;;13.43;;
13421;SDS011;6782;55.904;13.396;2023-06-05T05:53:52;18.00;;;14.48;;
13421;SDS011;6782;55.904;13.396;2023-06-05T05:56:39;19.00;;;12.85;;
13421;SDS011;6782;55.904;13.396;2023-06-05T05:59:27;16.35;;;12.88;;
13421;SDS011;6782;55.904;13.396;2023-06-05T06:02:15;17.35;;;13.60;;
13421;SDS011;6782;55.904;13.396;2023-06-05T06:05:02;16.77;;;12.93;;
13421;SDS011;6782;55.904;13.396;2023-06-05T06:07:50;13.68;;;12.15;;
13421;SDS011;6782;55.904;13.396;2023-06-05T06:10:40;16.45;;;12.15;;
13421;SDS011;6782;55.904;13.396;2023-06-05T06:13:27;14.95;;;11.65;;
13421;SDS011;6782;55.904;13.396;2023-06-05T06:16:14;15.77;;;12.77;;
13421;SDS011;6782;55.904;13.396;2023-06-05T06:19:02;13.38;;;11.77;;
13421;SDS011;6782;55.904;13.396;2023-06-05T06:21:49;15.05;;;11.25;;
13421;SDS011;6782;55.904;13.396;2023-06-05T06:24:37;16.17;;;12.23;;
13421;SDS011;6782;55.904;13.396;2023-06-05T06:27:26;13.50;;;10.45;;
13421;SDS011;6782;55.904;13.396;2023-06-05T06:30:13;16.67;;;11.20;;
13421;SDS011;6782;55.904;13.396;2023-06-05T06:33:01;13.73;;;10.43;;
13421;SDS011;6782;55.904;13.396;2023-06-05T06:35:49;14.20;;;10.20;;
13421;SDS011;6782;55.904;13.396;2023-06-05T06:38:37;13.00;;;10.70;;
13421;SDS011;6782;55.904;13.396;2023-06-05T06:41:24;13.88;;;10.85;;
13421;SDS011;6782;55.904;13.396;2023-06-05T06:44:13;13.18;;;10.45;;
13421;SDS011;6782;55.904;13.396;2023-06-05T06:47:00;13.88;;;10.23;;
13421;SDS011;6782;55.904;13.396;2023-06-05T06:49:47;13.80;;;9.43;;
13421;SDS011;6782;55.904;13.396;2023-06-05T06:52:34;15.00;;;10.40;;
13421;SDS011;6782;55.904;13.396;2023-06-05T06:55:22;9.88;;;8.75;;
13421;SDS011;6782;55.904;13.396;2023-06-05T06:58:09;11.55;;;8.63;;
13421;SDS011;6782;55.904;13.396;2023-06-05T07:00:58;13.98;;;9.48;;
13421;SDS011;6782;55.904;13.396;2023-06-05T07:03:45;10.27;;;8.90;;
13421;SDS011;6782;55.904;13.396;2023-06-05T07:06:32;13.18;;;9.30;;
13421;SDS011;6782;55.904;13.396;2023-06-05T07:09:19;10.60;;;9.15;;
13421;SDS011;6782;55.904;13.396;2023-06-05T07:12:07;10.88;;;8.75;;
13421;SDS011;6782;55.904;13.396;2023-06-05T07:14:55;11.25;;;8.65;;
13421;SDS011;6782;55.904;13.396;2023-06-05T07:17:44;9.40;;;7.65;;
13421;SDS011;6782;55.904;13.396;2023-06-05T07:20:32;11.50;;;8.45;;
13421;SDS011;6782;55.904;13.396;2023-06-05T07:23:20;14.02;;;8.23;;
13421;SDS011;6782;55.904;13.396;2023-06-05T07:26:07;10.77;;;7.13;;
13421;SDS011;6782;55.904;13.396;2023-06-05T07:28:55;12.25;;;7.53;;
13421;SDS011;6782;55.904;13.396;2023-06-05T07:31:42;9.45;;;7.10;;
13421;SDS011;6782;55.904;13.396;2023-06-05T07:34:31;9.05;;;7.10;;
13421;SDS011;6782;55.904;13.396;2023-06-05T07:37:19;12.10;;;6.63;;
13421;SDS011;6782;55.904;13.396;2023-06-05T07:40:06;8.95;;;6.90;;
13421;SDS011;6782;55.904;13.396;2023-06-05T07:42:55;10.75;;;6.90;;
13421;SDS011;6782;55.904;13.396;2023-06-05T07:45:42;9.05;;;6.25;;
13421;SDS011;6782;55.904;13.396;2023-06-05T07:48:29;8.20;;;5.72;;
13421;SDS011;6782;55.904;13.396;2023-06-05T07:51:17;7.40;;;5.43;;
13421;SDS011;6782;55.904;13.396;2023-06-05T07:54:06;6.85;;;4.93;;
13421;SDS011;6782;55.904;13.396;2023-06-05T07:56:54;6.65;;;4.90;;
13421;SDS011;6782;55.904;13.396;2023-06-05T07:59:42;8.63;;;4.97;;
13421;SDS011;6782;55.904;13.396;2023-06-05T08:02:30;4.72;;;2.58;;
13421;SDS011;6782;55.904;13.396;2023-06-05T08:05:17;4.97;;;3.00;;
13421;SDS011;6782;55.904;13.396;2023-06-05T08:08:06;7.22;;;2.63;;
13421;SDS011;6782;55.904;13.396;2023-06-05T08:10:53;4.97;;;2.53;;
13421;SDS011;6782;55.904;13.396;2023-06-05T08:13:41;5.07;;;2.90;;
13421;SDS011;6782;55.904;13.396;2023-06-05T08:16:28;3.58;;;2.42;;
13421;SDS011;6782;55.904;13.396;2023-06-05T08:19:15;5.82;;;2.60;;
13421;SDS011;6782;55.904;13.396;2023-06-05T08:22:03;9.10;;;3.03;;
13421;SDS011;6782;55.904;13.396;2023-06-05T08:24:51;5.35;;;3.17;;
13421;SDS011;6782;55.904;13.396;2023-06-05T08:27:39;5.32;;;3.20;;
13421;SDS011;6782;55.904;13.396;2023-06-05T08:30:27;6.25;;;3.35;;
13421;SDS011;6782;55.904;13.396;2023-06-05T08:33:14;4.80;;;2.50;;
13421;SDS011;6782;55.904;13.396;2023-06-05T08:36:01;5.53;;;2.85;;
13421;SDS011;6782;55.904;13.396;2023-06-05T08:38:49;5.18;;;2.40;;
13421;SDS011;6782;55.904;13.396;2023-06-05T08:41:38;5.40;;;2.72;;
13421;SDS011;6782;55.904;13.396;2023-06-05T08:44:26;5.25;;;3.00;;
13421;SDS011;6782;55.904;13.396;2023-06-05T08:47:14;3.80;;;2.58;;
13421;SDS011;6782;55.904;13.396;2023-06-05T08:50:02;5.78;;;2.90;;
13421;SDS011;6782;55.904;13.396;2023-06-05T08:52:52;4.20;;;2.38;;
13421;SDS011;6782;55.904;13.396;2023-06-05T08:55:43;6.18;;;2.83;;
13421;SDS011;6782;55.904;13.396;2023-06-05T08:58:33;3.45;;;3.10;;
13421;SDS011;6782;55.904;13.396;2023-06-05T09:01:21;5.90;;;3.08;;
13421;SDS011;6782;55.904;13.396;2023-06-05T09:04:09;5.30;;;2.50;;
13421;SDS011;6782;55.904;13.396;2023-06-05T09:06:56;2.60;;;2.40;;
13421;SDS011;6782;55.904;13.396;2023-06-05T09:09:44;3.10;;;2.28;;
13421;SDS011;6782;55.904;13.396;2023-06-05T09:12:31;3.95;;;2.33;;
13421;SDS011;6782;55.904;13.396;2023-06-05T09:15:23;3.33;;;2.30;;
13421;SDS011;6782;55.904;13.396;2023-06-05T09:18:11;5.63;;;2.83;;
13421;SDS011;6782;55.904;13.396;2023-06-05T09:21:01;5.88;;;3.00;;
13421;SDS011;6782;55.904;13.396;2023-06-05T09:24:10;3.53;;;2.67;;
13421;SDS011;6782;55.904;13.396;2023-06-05T09:27:02;5.13;;;2.80;;
13421;SDS011;6782;55.904;13.396;2023-06-05T09:29:51;4.80;;;2.72;;
13421;SDS011;6782;55.904;13.396;2023-06-05T09:32:50;3.53;;;2.38;;
13421;SDS011;6782;55.904;13.396;2023-06-05T09:35:37;4.53;;;2.80;;
13421;SDS011;6782;55.904;13.396;2023-06-05T09:38:27;4.30;;;2.80;;
13421;SDS011;6782;55.904;13.396;2023-06-05T09:41:15;4.05;;;2.55;;
13421;SDS011;6782;55.904;13.396;2023-06-05T09:44:06;4.03;;;2.50;;
13421;SDS011;6782;55.904;13.396;2023-06-05T09:46:54;6.43;;;2.88;;
13421;SDS011;6782;55.904;13.396;2023-06-05T09:49:47;5.25;;;2.60;;
13421;SDS011;6782;55.904;13.396;2023-06-05T09:52:34;3.10;;;2.58;;
13421;SDS011;6782;55.904;13.396;2023-06-05T09:55:25;5.35;;;2.70;;
13421;SDS011;6782;55.904;13.396;2023-06-05T09:58:13;3.67;;;2.00;;
13421;SDS011;6782;55.904;13.396;2023-06-05T10:01:02;4.55;;;2.40;;
13421;SDS011;6782;55.904;13.396;2023-06-05T10:03:55;4.15;;;2.50;;
13421;SDS011;6782;55.904;13.396;2023-06-05T10:06:46;4.93;;;2.53;;
13421;SDS011;6782;55.904;13.396;2023-06-05T10:09:34;5.72;;;2.55;;
13421;SDS011;6782;55.904;13.396;2023-06-05T10:12:22;3.55;;;2.20;;
13421;SDS011;6782;55.904;13.396;2023-06-05T10:15:12;3.15;;;2.50;;
13421;SDS011;6782;55.904;13.396;2023-06-05T10:18:00;2.47;;;2.20;;
13421;SDS011;6782;55.904;13.396;2023-06-05T10:20:48;2.95;;;2.25;;
13421;SDS011;6782;55.904;13.396;2023-06-05T10:23:37;3.95;;;2.30;;
13421;SDS011;6782;55.904;13.396;2023-06-05T10:26:29;3.83;;;2.45;;
13421;SDS011;6782;55.904;13.396;2023-06-05T10:29:43;5.03;;;2.33;;
13421;SDS011;6782;55.904;13.396;2023-06-05T10:32:53;3.95;;;2.28;;
13421;SDS011;6782;55.904;13.396;2023-06-05T10:35:50;6.60;;;3.13;;
13421;SDS011;6782;55.904;13.396;2023-06-05T10:38:48;4.43;;;2.33;;
13421;SDS011;6782;55.904;13.396;2023-06-05T10:41:35;3.75;;;2.15;;
13421;SDS011;6782;55.904;13.396;2023-06-05T10:44:37;4.50;;;2.42;;
13421;SDS011;6782;55.904;13.396;2023-06-05T10:50:43;5.35;;;3.10;;
13421;SDS011;6782;55.904;13.396;2023-06-05T10:53:44;4.30;;;2.35;;
13421;SDS011;6782;55.904;13.396;2023-06-05T10:59:51;4.28;;;3.05;;
13421;SDS011;6782;55.904;13.396;2023-06-05T11:02:54;2.80;;;2.30;;
13421;SDS011;6782;55.904;13.396;2023-06-05T11:05:42;2.53;;;2.30;;
13421;SDS011;6782;55.904;13.396;2023-06-05T11:09:07;4.03;;;2.25;;
13421;SDS011;6782;55.904;13.396;2023-06-05T11:11:59;4.10;;;2.30;;
13421;SDS011;6782;55.904;13.396;2023-06-05T11:14:48;3.85;;;2.28;;
13421;SDS011;6782;55.904;13.396;2023-06-05T11:17:35;4.25;;;2.55;;
13421;SDS011;6782;55.904;13.396;2023-06-05T11:23:38;3.88;;;2.40;;
13421;SDS011;6782;55.904;13.396;2023-06-05T11:26:41;4.90;;;2.28;;
13421;SDS011;6782;55.904;13.396;2023-06-05T11:29:29;5.00;;;2.50;;
13421;SDS011;6782;55.904;13.396;2023-06-05T11:32:18;4.55;;;2.47;;
13421;SDS011;6782;55.904;13.396;2023-06-05T11:35:06;5.25;;;2.63;;
13421;SDS011;6782;55.904;13.396;2023-06-05T11:38:07;4.90;;;2.58;;
13421;SDS011;6782;55.904;13.396;2023-06-05T11:40:55;4.40;;;2.30;;
13421;SDS011;6782;55.904;13.396;2023-06-05T11:43:45;3.13;;;2.63;;
13421;SDS011;6782;55.904;13.396;2023-06-05T11:46:36;4.78;;;2.38;;
13421;SDS011;6782;55.904;13.396;2023-06-05T11:49:26;2.53;;;2.33;;
13421;SDS011;6782;55.904;13.396;2023-06-05T11:52:17;3.08;;;2.15;;
13421;SDS011;6782;55.904;13.396;2023-06-05T11:55:12;3.15;;;2.35;;
13421;SDS011;6782;55.904;13.396;2023-06-05T11:58:01;2.72;;;2.20;;
13421;SDS011;6782;55.904;13.396;2023-06-05T12:00:49;3.72;;;2.40;;
13421;SDS011;6782;55.904;13.396;2023-06-05T12:03:36;4.22;;;2.75;;
13421;SDS011;6782;55.904;13.396;2023-06-05T12:06:26;3.30;;;2.53;;
13421;SDS011;6782;55.904;13.396;2023-06-05T12:09:14;5.43;;;2.40;;
13421;SDS011;6782;55.904;13.396;2023-06-05T12:12:05;3.90;;;2.28;;
13421;SDS011;6782;55.904;13.396;2023-06-05T12:14:53;2.45;;;1.95;;
13421;SDS011;6782;55.904;13.396;2023-06-05T12:17:47;3.60;;;2.47;;
13421;SDS011;6782;55.904;13.396;2023-06-05T12:20:37;4.05;;;2.42;;
13421;SDS011;6782;55.904;13.396;2023-06-05T12:23:28;4.78;;;2.38;;
13421;SDS011;6782;55.904;13.396;2023-06-05T12:26:18;3.72;;;2.42;;
13421;SDS011;6782;55.904;13.396;2023-06-05T12:29:05;4.75;;;2.38;;
13421;SDS011;6782;55.904;13.396;2023-06-05T12:31:53;3.90;;;1.90;;
13421;SDS011;6782;55.904;13.396;2023-06-05T12:34:42;4.00;;;2.40;;
13421;SDS011;6782;55.904;13.396;2023-06-05T12:37:35;3.03;;;2.00;;
13421;SDS011;6782;55.904;13.396;2023-06-05T12:40:25;3.03;;;1.90;;
13421;SDS011;6782;55.904;13.396;2023-06-05T12:43:18;2.92;;;2.60;;
13421;SDS011;6782;55.904;13.396;2023-06-05T12:46:06;3.50;;;2.30;;
13421;SDS011;6782;55.904;13.396;2023-06-05T12:48:59;3.80;;;2.40;;
13421;SDS011;6782;55.904;13.396;2023-06-05T12:51:46;2.60;;;2.22;;
13421;SDS011;6782;55.904;13.396;2023-06-05T12:54:34;2.50;;;2.10;;
13421;SDS011;6782;55.904;13.396;2023-06-05T12:57:24;5.43;;;2.53;;
13421;SDS011;6782;55.904;13.396;2023-06-05T13:00:12;2.83;;;2.60;;
13421;SDS011;6782;55.904;13.396;2023-06-05T13:03:02;4.97;;;2.58;;
13421;SDS011;6782;55.904;13.396;2023-06-05T13:05:50;2.92;;;2.10;;
13421;SDS011;6782;55.904;13.396;2023-06-05T13:08:37;3.50;;;2.17;;
13421;SDS011;6782;55.904;13.396;2023-06-05T13:11:25;5.60;;;2.58;;
13421;SDS011;6782;55.904;13.396;2023-06-05T13:14:13;4.70;;;2.38;;
13421;SDS011;6782;55.904;13.396;2023-06-05T13:17:01;2.88;;;2.35;;
13421;SDS011;6782;55.904;13.396;2023-06-05T13:19:48;4.63;;;2.80;;
13421;SDS011;6782;55.904;13.396;2023-06-05T13:22:35;3.20;;;2.47;;
13421;SDS011;6782;55.904;13.396;2023-06-05T13:25:23;3.97;;;2.38;;
13421;SDS011;6782;55.904;13.396;2023-06-05T13:28:11;4.20;;;2.25;;
13421;SDS011;6782;55.904;13.396;2023-06-05T13:31:00;4.85;;;2.75;;
13421;SDS011;6782;55.904;13.396;2023-06-05T13:33:48;6.63;;;2.35;;
13421;SDS011;6782;55.904;13.396;2023-06-05T13:36:35;3.70;;;2.42;;
13421;SDS011;6782;55.904;13.396;2023-06-05T13:39:24;3.20;;;2.60;;
13421;SDS011;6782;55.904;13.396;2023-06-05T13:42:11;4.70;;;2.50;;
13421;SDS011;6782;55.904;13.396;2023-06-05T13:44:58;2.83;;;2.30;;
13421;SDS011;6782;55.904;13.396;2023-06-05T13:47:47;3.95;;;2.45;;
13421;SDS011;6782;55.904;13.396;2023-06-05T13:50:34;3.90;;;2.40;;
13421;SDS011;6782;55.904;13.396;2023-06-05T13:53:21;3.95;;;2.40;;
13421;SDS011;6782;55.904;13.396;2023-06-05T13:56:08;4.35;;;2.25;;
13421;SDS011;6782;55.904;13.396;2023-06-05T13:58:55;3.15;;;2.50;;
13421;SDS011;6782;55.904;13.396;2023-06-05T14:01:43;4.35;;;2.30;;
13421;SDS011;6782;55.904;13.396;2023-06-05T14:04:32;2.85;;;2.38;;
13421;SDS011;6782;55.904;13.396;2023-06-05T14:07:19;5.70;;;3.05;;
13421;SDS011;6782;55.904;13.396;2023-06-05T14:10:07;4.63;;;2.40;;
13421;SDS011;6782;55.904;13.396;2023-06-05T14:12:54;4.03;;;2.50;;
13421;SDS011;6782;55.904;13.396;2023-06-05T14:15:42;2.70;;;2.50;;
13421;SDS011;6782;55.904;13.396;2023-06-05T14:18:29;3.60;;;2.30;;
13421;SDS011;6782;55.904;13.396;2023-06-05T14:21:18;5.85;;;3.00;;
13421;SDS011;6782;55.904;13.396;2023-06-05T14:24:06;4.88;;;2.65;;
13421;SDS011;6782;55.904;13.396;2023-06-05T14:26:53;3.40;;;2.40;;
13421;SDS011;6782;55.904;13.396;2023-06-05T14:29:40;3.78;;;2.78;;
13421;SDS011;6782;55.904;13.396;2023-06-05T14:32:28;5.95;;;2.50;;
13421;SDS011;6782;55.904;13.396;2023-06-05T14:35:15;3.50;;;2.70;;
13421;SDS011;6782;55.904;13.396;2023-06-05T14:38:06;5.43;;;2.55;;
13421;SDS011;6782;55.904;13.396;2023-06-05T14:40:57;3.55;;;2.45;;
13421;SDS011;6782;55.904;13.396;2023-06-05T14:43:44;7.03;;;2.60;;
13421;SDS011;6782;55.904;13.396;2023-06-05T14:46:32;4.30;;;2.40;;
13421;SDS011;6782;55.904;13.396;2023-06-05T14:49:19;4.28;;;3.00;;
13421;SDS011;6782;55.904;13.396;2023-06-05T14:52:06;4.18;;;2.65;;
13421;SDS011;6782;55.904;13.396;2023-06-05T14:54:55;4.82;;;2.40;;
13421;SDS011;6782;55.904;13.396;2023-06-05T14:57:42;5.32;;;2.70;;
13421;SDS011;6782;55.904;13.396;2023-06-05T15:00:29;5.75;;;2.72;;
13421;SDS011;6782;55.904;13.396;2023-06-05T15:03:16;4.53;;;2.63;;
13421;SDS011;6782;55.904;13.396;2023-06-05T15:06:04;4.13;;;2.70;;
13421;SDS011;6782;55.904;13.396;2023-06-05T15:08:52;5.72;;;2.58;;
13421;SDS011;6782;55.904;13.396;2023-06-05T15:11:40;4.45;;;3.00;;
13421;SDS011;6782;55.904;13.396;2023-06-05T15:14:27;4.20;;;2.72;;
13421;SDS011;6782;55.904;13.396;2023-06-05T15:17:14;4.32;;;3.20;;
13421;SDS011;6782;55.904;13.396;2023-06-05T15:20:03;5.38;;;2.90;;
13421;SDS011;6782;55.904;13.396;2023-06-05T15:22:52;3.97;;;2.60;;
13421;SDS011;6782;55.904;13.396;2023-06-05T15:25:39;4.50;;;2.53;;
13421;SDS011;6782;55.904;13.396;2023-06-05T15:28:28;4.03;;;2.65;;
13421;SDS011;6782;55.904;13.396;2023-06-05T15:31:15;4.05;;;2.67;;
13421;SDS011;6782;55.904;13.396;2023-06-05T15:34:02;5.38;;;2.72;;
13421;SDS011;6782;55.904;13.396;2023-06-05T15:36:49;3.20;;;2.60;;
13421;SDS011;6782;55.904;13.396;2023-06-05T15:39:36;4.88;;;2.70;;
13421;SDS011;6782;55.904;13.396;2023-06-05T15:42:27;4.60;;;2.72;;
13421;SDS011;6782;55.904;13.396;2023-06-05T15:45:17;2.83;;;2.50;;
13421;SDS011;6782;55.904;13.396;2023-06-05T15:48:04;4.05;;;2.63;;
13421;SDS011;6782;55.904;13.396;2023-06-05T15:50:52;3.88;;;2.63;;
13421;SDS011;6782;55.904;13.396;2023-06-05T15:53:41;4.78;;;2.83;;
13421;SDS011;6782;55.904;13.396;2023-06-05T15:56:28;4.00;;;2.90;;
13421;SDS011;6782;55.904;13.396;2023-06-05T15:59:16;14.55;;;3.88;;
13421;SDS011;6782;55.904;13.396;2023-06-05T16:02:06;5.47;;;3.10;;
13421;SDS011;6782;55.904;13.396;2023-06-05T16:04:53;3.53;;;2.60;;
13421;SDS011;6782;55.904;13.396;2023-06-05T16:07:40;17.77;;;3.80;;
13421;SDS011;6782;55.904;13.396;2023-06-05T16:10:27;5.72;;;3.15;;
13421;SDS011;6782;55.904;13.396;2023-06-05T16:13:14;5.80;;;2.85;;
13421;SDS011;6782;55.904;13.396;2023-06-05T16:16:02;5.03;;;2.90;;
13421;SDS011;6782;55.904;13.396;2023-06-05T16:18:50;3.88;;;2.80;;
13421;SDS011;6782;55.904;13.396;2023-06-05T16:21:38;8.35;;;3.10;;
13421;SDS011;6782;55.904;13.396;2023-06-05T16:24:26;6.43;;;4.10;;
13421;SDS011;6782;55.904;13.396;2023-06-05T16:27:13;5.38;;;3.88;;
13421;SDS011;6782;55.904;13.396;2023-06-05T16:30:02;4.53;;;2.65;;
13421;SDS011;6782;55.904;13.396;2023-06-05T16:32:49;5.05;;;2.85;;
13421;SDS011;6782;55.904;13.396;2023-06-05T16:35:38;4.95;;;2.80;;
13421;SDS011;6782;55.904;13.396;2023-06-05T16:38:25;7.65;;;3.13;;
13421;SDS011;6782;55.904;13.396;2023-06-05T16:41:13;5.75;;;2.83;;
13421;SDS011;6782;55.904;13.396;2023-06-05T16:44:00;5.95;;;2.75;;
13421;SDS011;6782;55.904;13.396;2023-06-05T16:46:47;23.15;;;4.35;;
13421;SDS011;6782;55.904;13.396;2023-06-05T16:49:34;10.77;;;3.70;;
13421;SDS011;6782;55.904;13.396;2023-06-05T16:52:24;12.00;;;3.17;;
13421;SDS011;6782;55.904;13.396;2023-06-05T16:55:11;18.75;;;4.07;;
13421;SDS011;6782;55.904;13.396;2023-06-05T16:57:59;9.80;;;3.80;;
13421;SDS011;6782;55.904;13.396;2023-06-05T17:00:46;3.67;;;2.90;;
13421;SDS011;6782;55.904;13.396;2023-06-05T17:03:33;4.15;;;2.95;;
13421;SDS011;6782;55.904;13.396;2023-06-05T17:06:21;6.22;;;2.70;;